< < Back
Terminal Aerodrome Forecast


Current Version              Previous Versions:   1  2  3  4  5  6  7  8  9  

Terminal Aerodrome Forecast

857
FTUS42 KFFC 252300
TAFMCN
TAF
KMCN 252333Z 2600/2624 30003KT P6SM SKC
     FM261400 31004KT P6SM FEW250
     FM262300 00000KT P6SM SKC=

Latest METAR

550
SAUS80 KWBC 260800
MTRMCN
METAR KMCN 260753Z AUTO 26003KT 10SM CLR 11/10 A2997 RMK AO2 SLP147
T01060100 TSNO


USA.gov is the U.S. government's official web portal to all federal, state and local government web resources and services.